CSCL Fuzhou — ELYA7 — position and weather

sailwx.info

Track history (hours):
 
Tides and Currents Weather Stations Pressure Air Temp Water Temp Dewpoint Dewpoint Depression Visibility Wind Speed Wind Dir Waves Ship Positions

CSCL Fuzhou

Last reported at 2014-Aug-25 22:25 UTC. Time now 2014-Sep-01 11:44 UTC.
Position N 01°15' E 104°03'.

Length 207.4 m; beam 29.8 m; draft 11.4 m.

Type: Ship (hazmat cat A). MMSI: 636016483.

Date/timePositionNaut miles runAvg speedWind from/ knotsBaromVisibWave heightAir tempDewpointWater temp
2014-Aug-25 22:25N 01°15' E 104°03'1415.4
2014-Aug-25 21:30N 01°11' E 103°50'7 7.1
2014-Aug-25 20:33N 01°17' E 103°46'0 0.2
2014-Aug-25 19:11N 01°17' E 103°46'0 0.0
2014-Aug-25 18:32N 01°17' E 103°46'0 0.0
2014-Aug-25 17:20N 01°17' E 103°46'0 0.0
2014-Aug-25 16:32N 01°17' E 103°46'0 0.0
2014-Aug-25 15:14N 01°17' E 103°46'0 0.0
2014-Aug-25 13:17N 01°17' E 103°46'0 0.0
2014-Aug-25 12:17N 01°17' E 103°46'0 0.0
2014-Aug-25 10:32N 01°17' E 103°46'0 0.0
2014-Aug-25 08:20N 01°17' E 103°46'0 0.0
2014-Aug-25 07:32N 01°17' E 103°46'0 0.0
2014-Aug-25 06:32N 01°17' E 103°46'0 0.0
2014-Aug-25 05:32N 01°17' E 103°46'0 0.0
2014-Aug-25 04:23N 01°17' E 103°46'0 0.0
2014-Aug-25 03:23N 01°17' E 103°46'0 0.0
2014-Aug-25 02:32N 01°17' E 103°46'0 0.0
2014-Aug-25 01:32N 01°17' E 103°46'0 0.0
2014-Aug-25 00:32N 01°17' E 103°46'0 0.0
2014-Aug-24 23:32N 01°17' E 103°46'0 0.0
2014-Aug-24 22:20N 01°17' E 103°46'0 0.0
2014-Aug-24 21:20N 01°17' E 103°46'0 0.0
2014-Aug-24 19:26N 01°17' E 103°46'0 0.0
2014-Aug-24 18:32N 01°17' E 103°46'0 0.0
2014-Aug-24 17:32N 01°17' E 103°46'0 0.0
2014-Aug-24 16:32N 01°17' E 103°46'0 0.0
2014-Aug-24 15:32N 01°17' E 103°46'0 0.0
2014-Aug-24 14:32N 01°17' E 103°46'0 0.0
2014-Aug-24 13:32N 01°17' E 103°46'0 0.0
2014-Aug-24 12:32N 01°17' E 103°46'1 0.9
2014-Aug-24 11:33N 01°17' E 103°45'8 8.3
2014-Aug-24 10:33N 01°13' E 103°52'5 4.8
2014-Aug-24 09:33N 01°15' E 103°57'9 9.4
2014-Aug-24 08:33N 01°16' E 104°06'  
2014-Aug-18 08:11N 01°15' E 104°03'914.3
2014-Aug-18 07:33N 01°13' E 103°55'9 9.1
2014-Aug-18 06:33N 01°15' E 103°46'2 1.9
2014-Aug-18 05:27N 01°17' E 103°46'0 0.0
2014-Aug-18 04:30N 01°17' E 103°46'0 0.0
2014-Aug-18 03:30N 01°17' E 103°46'0 0.0
2014-Aug-18 02:33N 01°17' E 103°46'0 0.0
2014-Aug-18 01:24N 01°17' E 103°46'0 0.0
2014-Aug-18 00:24N 01°17' E 103°46'0 0.0
2014-Aug-17 18:06N 01°17' E 103°46'0 0.0
2014-Aug-17 17:24N 01°17' E 103°46'0 0.0
2014-Aug-17 16:18N 01°17' E 103°46'0 0.0
2014-Aug-17 15:30N 01°17' E 103°46'0 0.0
2014-Aug-17 14:24N 01°17' E 103°46'0 0.0
2014-Aug-17 13:30N 01°17' E 103°46'0 0.0
2014-Aug-17 12:30N 01°17' E 103°46'0 0.0
2014-Aug-17 11:30N 01°17' E 103°46'0 0.0
2014-Aug-17 10:30N 01°17' E 103°46'0 0.0
2014-Aug-17 09:30N 01°17' E 103°46'0 0.0
2014-Aug-17 08:24N 01°17' E 103°46'0 0.0
2014-Aug-17 07:33N 01°17' E 103°46'0 0.0
2014-Aug-17 06:18N 01°17' E 103°46'0 0.0
2014-Aug-17 05:30N 01°17' E 103°46'0 0.0
2014-Aug-17 04:18N 01°17' E 103°46'0 0.0
2014-Aug-17 03:24N 01°17' E 103°46'0 0.0
2014-Aug-17 02:30N 01°17' E 103°46'1 1.6
2014-Aug-17 01:33N 01°16' E 103°46'1010.4
2014-Aug-17 00:33N 01°15' E 103°56'8 7.8
2014-Aug-16 23:33N 01°16' E 104°04'10 9.2
2014-Aug-16 22:29N 01°17' E 104°14'  
Track history (hours):
 
Tides and Currents Weather Stations Pressure Air Temp Water Temp Dewpoint Dewpoint Depression Visibility Wind Speed Wind Dir Waves Ship Positions

CSCL Fuzhou

Last reported at 2014-Aug-25 22:25 UTC. Time now 2014-Sep-01 11:44 UTC.
Position N 01°15' E 104°03'.

Length 207.4 m; beam 29.8 m; draft 11.4 m.

Type: Ship (hazmat cat A). MMSI: 636016483.

Date/timePositionNaut miles runAvg speedWind from/ knotsBaromVisibWave heightAir tempDewpointWater temp
2014-Aug-25 22:25N 01°15' E 104°03'1415.4
2014-Aug-25 21:30N 01°11' E 103°50'7 7.1
2014-Aug-25 20:33N 01°17' E 103°46'0 0.2
2014-Aug-25 19:11N 01°17' E 103°46'0 0.0
2014-Aug-25 18:32N 01°17' E 103°46'0 0.0
2014-Aug-25 17:20N 01°17' E 103°46'0 0.0
2014-Aug-25 16:32N 01°17' E 103°46'0 0.0
2014-Aug-25 15:14N 01°17' E 103°46'0 0.0
2014-Aug-25 13:17N 01°17' E 103°46'0 0.0
2014-Aug-25 12:17N 01°17' E 103°46'0 0.0
2014-Aug-25 10:32N 01°17' E 103°46'0 0.0
2014-Aug-25 08:20N 01°17' E 103°46'0 0.0
2014-Aug-25 07:32N 01°17' E 103°46'0 0.0
2014-Aug-25 06:32N 01°17' E 103°46'0 0.0
2014-Aug-25 05:32N 01°17' E 103°46'0 0.0
2014-Aug-25 04:23N 01°17' E 103°46'0 0.0
2014-Aug-25 03:23N 01°17' E 103°46'0 0.0
2014-Aug-25 02:32N 01°17' E 103°46'0 0.0
2014-Aug-25 01:32N 01°17' E 103°46'0 0.0
2014-Aug-25 00:32N 01°17' E 103°46'0 0.0
2014-Aug-24 23:32N 01°17' E 103°46'0 0.0
2014-Aug-24 22:20N 01°17' E 103°46'0 0.0
2014-Aug-24 21:20N 01°17' E 103°46'0 0.0
2014-Aug-24 19:26N 01°17' E 103°46'0 0.0
2014-Aug-24 18:32N 01°17' E 103°46'0 0.0
2014-Aug-24 17:32N 01°17' E 103°46'0 0.0
2014-Aug-24 16:32N 01°17' E 103°46'0 0.0
2014-Aug-24 15:32N 01°17' E 103°46'0 0.0
2014-Aug-24 14:32N 01°17' E 103°46'0 0.0
2014-Aug-24 13:32N 01°17' E 103°46'0 0.0
2014-Aug-24 12:32N 01°17' E 103°46'1 0.9
2014-Aug-24 11:33N 01°17' E 103°45'8 8.3
2014-Aug-24 10:33N 01°13' E 103°52'5 4.8
2014-Aug-24 09:33N 01°15' E 103°57'9 9.4
2014-Aug-24 08:33N 01°16' E 104°06'  
2014-Aug-18 08:11N 01°15' E 104°03'914.3
2014-Aug-18 07:33N 01°13' E 103°55'9 9.1
2014-Aug-18 06:33N 01°15' E 103°46'2 1.9
2014-Aug-18 05:27N 01°17' E 103°46'0 0.0
2014-Aug-18 04:30N 01°17' E 103°46'0 0.0
2014-Aug-18 03:30N 01°17' E 103°46'0 0.0
2014-Aug-18 02:33N 01°17' E 103°46'0 0.0
2014-Aug-18 01:24N 01°17' E 103°46'0 0.0
2014-Aug-18 00:24N 01°17' E 103°46'0 0.0
2014-Aug-17 18:06N 01°17' E 103°46'0 0.0
2014-Aug-17 17:24N 01°17' E 103°46'0 0.0
2014-Aug-17 16:18N 01°17' E 103°46'0 0.0
2014-Aug-17 15:30N 01°17' E 103°46'0 0.0
2014-Aug-17 14:24N 01°17' E 103°46'0 0.0
2014-Aug-17 13:30N 01°17' E 103°46'0 0.0
2014-Aug-17 12:30N 01°17' E 103°46'0 0.0
2014-Aug-17 11:30N 01°17' E 103°46'0 0.0
2014-Aug-17 10:30N 01°17' E 103°46'0 0.0
2014-Aug-17 09:30N 01°17' E 103°46'0 0.0
2014-Aug-17 08:24N 01°17' E 103°46'0 0.0
2014-Aug-17 07:33N 01°17' E 103°46'0 0.0
2014-Aug-17 06:18N 01°17' E 103°46'0 0.0
2014-Aug-17 05:30N 01°17' E 103°46'0 0.0
2014-Aug-17 04:18N 01°17' E 103°46'0 0.0
2014-Aug-17 03:24N 01°17' E 103°46'0 0.0
2014-Aug-17 02:30N 01°17' E 103°46'1 1.6
2014-Aug-17 01:33N 01°16' E 103°46'1010.4
2014-Aug-17 00:33N 01°15' E 103°56'8 7.8
2014-Aug-16 23:33N 01°16' E 104°04'10 9.2
2014-Aug-16 22:29N 01°17' E 104°14'  

Dump ship's entire track history